sensor_id;sensor_type;location;lat;lon;timestamp;P1;durP1;ratioP1;P2;durP2;ratioP2
58242;SDS011;50118;53.232;8.252;2022-11-12T00:01:20;15.30;;;9.82;;
58242;SDS011;50118;53.232;8.252;2022-11-12T00:03:46;15.75;;;9.82;;
58242;SDS011;50118;53.232;8.252;2022-11-12T00:06:11;14.95;;;10.27;;
58242;SDS011;50118;53.232;8.252;2022-11-12T00:08:37;15.98;;;10.57;;
58242;SDS011;50118;53.232;8.252;2022-11-12T00:11:02;17.42;;;11.20;;
58242;SDS011;50118;53.232;8.252;2022-11-12T00:13:29;15.80;;;10.48;;
58242;SDS011;50118;53.232;8.252;2022-11-12T00:15:54;16.05;;;11.40;;
58242;SDS011;50118;53.232;8.252;2022-11-12T00:18:25;15.95;;;9.88;;
58242;SDS011;50118;53.232;8.252;2022-11-12T00:20:51;15.88;;;10.48;;
58242;SDS011;50118;53.232;8.252;2022-11-12T00:23:16;15.68;;;10.50;;
58242;SDS011;50118;53.232;8.252;2022-11-12T00:25:41;15.05;;;10.07;;
58242;SDS011;50118;53.232;8.252;2022-11-12T00:28:08;13.70;;;9.75;;
58242;SDS011;50118;53.232;8.252;2022-11-12T00:30:38;16.63;;;11.23;;
58242;SDS011;50118;53.232;8.252;2022-11-12T00:33:05;15.48;;;9.98;;
58242;SDS011;50118;53.232;8.252;2022-11-12T00:35:31;17.23;;;10.18;;
58242;SDS011;50118;53.232;8.252;2022-11-12T00:37:59;13.32;;;9.38;;
58242;SDS011;50118;53.232;8.252;2022-11-12T00:40:25;13.20;;;9.63;;
58242;SDS011;50118;53.232;8.252;2022-11-12T00:42:51;14.85;;;9.70;;
58242;SDS011;50118;53.232;8.252;2022-11-12T00:45:20;12.38;;;9.30;;
58242;SDS011;50118;53.232;8.252;2022-11-12T00:47:45;15.13;;;9.68;;
58242;SDS011;50118;53.232;8.252;2022-11-12T00:50:11;16.38;;;10.77;;
58242;SDS011;50118;53.232;8.252;2022-11-12T00:52:37;16.02;;;10.85;;
58242;SDS011;50118;53.232;8.252;2022-11-12T00:55:03;15.88;;;10.23;;
58242;SDS011;50118;53.232;8.252;2022-11-12T00:57:28;16.52;;;9.90;;
58242;SDS011;50118;53.232;8.252;2022-11-12T00:59:54;16.58;;;10.30;;
58242;SDS011;50118;53.232;8.252;2022-11-12T01:02:19;14.10;;;9.85;;
58242;SDS011;50118;53.232;8.252;2022-11-12T01:04:46;14.13;;;10.15;;
58242;SDS011;50118;53.232;8.252;2022-11-12T01:07:11;15.48;;;10.93;;
58242;SDS011;50118;53.232;8.252;2022-11-12T01:09:39;14.27;;;10.25;;
58242;SDS011;50118;53.232;8.252;2022-11-12T01:12:05;17.00;;;10.77;;
58242;SDS011;50118;53.232;8.252;2022-11-12T01:14:30;16.05;;;10.80;;
58242;SDS011;50118;53.232;8.252;2022-11-12T01:16:56;14.30;;;9.85;;
58242;SDS011;50118;53.232;8.252;2022-11-12T01:19:21;18.98;;;11.20;;
58242;SDS011;50118;53.232;8.252;2022-11-12T01:21:47;14.98;;;10.73;;
58242;SDS011;50118;53.232;8.252;2022-11-12T01:24:12;15.02;;;10.80;;
58242;SDS011;50118;53.232;8.252;2022-11-12T01:26:37;17.80;;;11.50;;
58242;SDS011;50118;53.232;8.252;2022-11-12T01:29:03;15.68;;;11.27;;
58242;SDS011;50118;53.232;8.252;2022-11-12T01:31:30;17.00;;;11.18;;
58242;SDS011;50118;53.232;8.252;2022-11-12T01:33:59;15.45;;;10.48;;
58242;SDS011;50118;53.232;8.252;2022-11-12T01:36:27;16.20;;;11.43;;
58242;SDS011;50118;53.232;8.252;2022-11-12T01:38:56;13.00;;;9.82;;
58242;SDS011;50118;53.232;8.252;2022-11-12T01:41:26;16.50;;;11.13;;
58242;SDS011;50118;53.232;8.252;2022-11-12T01:44:13;15.85;;;11.13;;
58242;SDS011;50118;53.232;8.252;2022-11-12T01:46:56;16.70;;;11.07;;
58242;SDS011;50118;53.232;8.252;2022-11-12T01:50:12;15.77;;;10.95;;
58242;SDS011;50118;53.232;8.252;2022-11-12T01:54:52;15.85;;;10.88;;
58242;SDS011;50118;53.232;8.252;2022-11-12T01:57:22;15.35;;;11.18;;
58242;SDS011;50118;53.232;8.252;2022-11-12T01:59:52;17.95;;;11.25;;
58242;SDS011;50118;53.232;8.252;2022-11-12T02:02:22;16.65;;;11.10;;
58242;SDS011;50118;53.232;8.252;2022-11-12T02:04:48;16.23;;;11.05;;
58242;SDS011;50118;53.232;8.252;2022-11-12T02:07:15;15.05;;;10.57;;
58242;SDS011;50118;53.232;8.252;2022-11-12T02:09:42;14.85;;;9.57;;
58242;SDS011;50118;53.232;8.252;2022-11-12T02:12:07;16.50;;;11.23;;
58242;SDS011;50118;53.232;8.252;2022-11-12T02:14:53;16.20;;;11.10;;
58242;SDS011;50118;53.232;8.252;2022-11-12T02:17:18;15.75;;;10.93;;
58242;SDS011;50118;53.232;8.252;2022-11-12T02:19:45;15.75;;;9.93;;
58242;SDS011;50118;53.232;8.252;2022-11-12T02:22:11;19.58;;;11.18;;
58242;SDS011;50118;53.232;8.252;2022-11-12T02:24:36;16.38;;;11.15;;
58242;SDS011;50118;53.232;8.252;2022-11-12T02:27:02;20.30;;;12.02;;
58242;SDS011;50118;53.232;8.252;2022-11-12T02:29:29;16.00;;;11.20;;
58242;SDS011;50118;53.232;8.252;2022-11-12T02:31:55;14.10;;;10.35;;
58242;SDS011;50118;53.232;8.252;2022-11-12T02:34:20;16.23;;;11.80;;
58242;SDS011;50118;53.232;8.252;2022-11-12T02:36:46;17.52;;;10.75;;
58242;SDS011;50118;53.232;8.252;2022-11-12T02:39:11;18.38;;;11.63;;
58242;SDS011;50118;53.232;8.252;2022-11-12T02:41:36;16.73;;;11.43;;
58242;SDS011;50118;53.232;8.252;2022-11-12T02:44:02;16.23;;;11.13;;
58242;SDS011;50118;53.232;8.252;2022-11-12T02:46:27;15.40;;;10.77;;
58242;SDS011;50118;53.232;8.252;2022-11-12T02:48:53;17.83;;;11.30;;
58242;SDS011;50118;53.232;8.252;2022-11-12T02:51:18;15.48;;;11.07;;
58242;SDS011;50118;53.232;8.252;2022-11-12T02:53:43;17.27;;;11.23;;
58242;SDS011;50118;53.232;8.252;2022-11-12T02:56:09;16.42;;;11.48;;
58242;SDS011;50118;53.232;8.252;2022-11-12T02:58:34;16.83;;;11.45;;
58242;SDS011;50118;53.232;8.252;2022-11-12T03:00:59;16.50;;;11.43;;
58242;SDS011;50118;53.232;8.252;2022-11-12T03:03:25;15.15;;;11.13;;
58242;SDS011;50118;53.232;8.252;2022-11-12T03:05:59;19.10;;;11.55;;
58242;SDS011;50118;53.232;8.252;2022-11-12T03:08:25;17.67;;;11.95;;
58242;SDS011;50118;53.232;8.252;2022-11-12T03:10:51;18.27;;;11.68;;
58242;SDS011;50118;53.232;8.252;2022-11-12T03:13:17;15.63;;;11.05;;
58242;SDS011;50118;53.232;8.252;2022-11-12T03:15:43;15.40;;;11.18;;
58242;SDS011;50118;53.232;8.252;2022-11-12T03:18:08;18.52;;;11.50;;
58242;SDS011;50118;53.232;8.252;2022-11-12T03:20:34;16.85;;;11.07;;
58242;SDS011;50118;53.232;8.252;2022-11-12T03:23:00;17.85;;;11.32;;
58242;SDS011;50118;53.232;8.252;2022-11-12T03:25:28;18.15;;;12.25;;
58242;SDS011;50118;53.232;8.252;2022-11-12T03:28:01;17.20;;;11.60;;
58242;SDS011;50118;53.232;8.252;2022-11-12T03:30:30;17.40;;;12.30;;
58242;SDS011;50118;53.232;8.252;2022-11-12T03:32:57;17.10;;;11.23;;
58242;SDS011;50118;53.232;8.252;2022-11-12T03:35:23;17.15;;;12.02;;
58242;SDS011;50118;53.232;8.252;2022-11-12T03:37:49;16.65;;;11.20;;
58242;SDS011;50118;53.232;8.252;2022-11-12T03:40:15;17.27;;;11.55;;
58242;SDS011;50118;53.232;8.252;2022-11-12T03:42:45;17.05;;;11.38;;
58242;SDS011;50118;53.232;8.252;2022-11-12T03:45:12;17.25;;;12.25;;
58242;SDS011;50118;53.232;8.252;2022-11-12T03:47:41;16.25;;;11.48;;
58242;SDS011;50118;53.232;8.252;2022-11-12T03:50:08;17.52;;;11.88;;
58242;SDS011;50118;53.232;8.252;2022-11-12T03:52:35;16.77;;;11.32;;
58242;SDS011;50118;53.232;8.252;2022-11-12T03:55:01;15.80;;;11.02;;
58242;SDS011;50118;53.232;8.252;2022-11-12T03:57:26;17.67;;;11.50;;
58242;SDS011;50118;53.232;8.252;2022-11-12T03:59:51;17.13;;;11.20;;
58242;SDS011;50118;53.232;8.252;2022-11-12T04:02:17;16.50;;;11.63;;
58242;SDS011;50118;53.232;8.252;2022-11-12T04:04:42;20.15;;;12.70;;
58242;SDS011;50118;53.232;8.252;2022-11-12T04:07:26;17.48;;;12.60;;
58242;SDS011;50118;53.232;8.252;2022-11-12T04:10:10;18.92;;;12.80;;
58242;SDS011;50118;53.232;8.252;2022-11-12T04:12:35;20.63;;;12.85;;
58242;SDS011;50118;53.232;8.252;2022-11-12T04:15:19;17.63;;;12.48;;
58242;SDS011;50118;53.232;8.252;2022-11-12T04:17:45;18.23;;;12.13;;
58242;SDS011;50118;53.232;8.252;2022-11-12T04:20:29;16.40;;;11.85;;
58242;SDS011;50118;53.232;8.252;2022-11-12T04:23:12;17.60;;;11.88;;
58242;SDS011;50118;53.232;8.252;2022-11-12T04:25:38;21.15;;;12.63;;
58242;SDS011;50118;53.232;8.252;2022-11-12T04:28:22;19.08;;;12.45;;
58242;SDS011;50118;53.232;8.252;2022-11-12T04:30:48;16.67;;;11.85;;
58242;SDS011;50118;53.232;8.252;2022-11-12T04:33:13;16.17;;;11.25;;
58242;SDS011;50118;53.232;8.252;2022-11-12T04:35:38;17.08;;;12.38;;
58242;SDS011;50118;53.232;8.252;2022-11-12T04:38:04;15.07;;;11.02;;
58242;SDS011;50118;53.232;8.252;2022-11-12T04:40:29;15.70;;;11.43;;
58242;SDS011;50118;53.232;8.252;2022-11-12T04:43:14;14.88;;;10.95;;
58242;SDS011;50118;53.232;8.252;2022-11-12T04:46:00;17.55;;;11.32;;
58242;SDS011;50118;53.232;8.252;2022-11-12T04:48:26;14.52;;;10.68;;
58242;SDS011;50118;53.232;8.252;2022-11-12T04:50:59;16.88;;;11.02;;
58242;SDS011;50118;53.232;8.252;2022-11-12T04:53:27;16.98;;;11.63;;
58242;SDS011;50118;53.232;8.252;2022-11-12T04:55:53;16.40;;;11.88;;
58242;SDS011;50118;53.232;8.252;2022-11-12T04:58:20;15.40;;;10.80;;
58242;SDS011;50118;53.232;8.252;2022-11-12T05:00:47;16.95;;;12.43;;
58242;SDS011;50118;53.232;8.252;2022-11-12T05:03:14;17.33;;;11.95;;
58242;SDS011;50118;53.232;8.252;2022-11-12T05:05:40;17.98;;;11.88;;
58242;SDS011;50118;53.232;8.252;2022-11-12T05:08:06;16.17;;;12.23;;
58242;SDS011;50118;53.232;8.252;2022-11-12T05:10:31;18.20;;;12.45;;
58242;SDS011;50118;53.232;8.252;2022-11-12T05:12:57;14.68;;;11.10;;
58242;SDS011;50118;53.232;8.252;2022-11-12T05:15:22;16.83;;;11.65;;
58242;SDS011;50118;53.232;8.252;2022-11-12T05:17:48;18.80;;;12.38;;
58242;SDS011;50118;53.232;8.252;2022-11-12T05:20:13;15.90;;;11.25;;
58242;SDS011;50118;53.232;8.252;2022-11-12T05:22:39;18.15;;;12.35;;
58242;SDS011;50118;53.232;8.252;2022-11-12T05:25:05;15.48;;;11.65;;
58242;SDS011;50118;53.232;8.252;2022-11-12T05:27:31;19.02;;;13.18;;
58242;SDS011;50118;53.232;8.252;2022-11-12T05:29:57;21.17;;;13.68;;
58242;SDS011;50118;53.232;8.252;2022-11-12T05:32:22;19.83;;;13.20;;
58242;SDS011;50118;53.232;8.252;2022-11-12T05:34:47;18.23;;;13.23;;
58242;SDS011;50118;53.232;8.252;2022-11-12T05:37:13;19.25;;;12.30;;
58242;SDS011;50118;53.232;8.252;2022-11-12T05:39:39;20.45;;;13.07;;
58242;SDS011;50118;53.232;8.252;2022-11-12T05:42:05;20.08;;;13.27;;
58242;SDS011;50118;53.232;8.252;2022-11-12T05:44:31;17.13;;;12.30;;
58242;SDS011;50118;53.232;8.252;2022-11-12T05:46:57;19.27;;;13.00;;
58242;SDS011;50118;53.232;8.252;2022-11-12T05:49:23;18.27;;;12.35;;
58242;SDS011;50118;53.232;8.252;2022-11-12T05:51:48;18.85;;;12.18;;
58242;SDS011;50118;53.232;8.252;2022-11-12T05:54:15;18.08;;;12.27;;
58242;SDS011;50118;53.232;8.252;2022-11-12T05:56:41;17.85;;;12.10;;
58242;SDS011;50118;53.232;8.252;2022-11-12T05:59:07;15.88;;;11.32;;
58242;SDS011;50118;53.232;8.252;2022-11-12T06:01:33;16.92;;;11.65;;
58242;SDS011;50118;53.232;8.252;2022-11-12T06:04:11;16.55;;;12.05;;
58242;SDS011;50118;53.232;8.252;2022-11-12T06:06:38;16.50;;;11.85;;
58242;SDS011;50118;53.232;8.252;2022-11-12T06:09:04;16.80;;;11.48;;
58242;SDS011;50118;53.232;8.252;2022-11-12T06:11:30;18.05;;;12.38;;
58242;SDS011;50118;53.232;8.252;2022-11-12T06:13:55;17.42;;;12.60;;
58242;SDS011;50118;53.232;8.252;2022-11-12T06:16:20;17.13;;;12.25;;
58242;SDS011;50118;53.232;8.252;2022-11-12T06:18:46;17.00;;;11.13;;
58242;SDS011;50118;53.232;8.252;2022-11-12T06:21:11;16.83;;;11.63;;
58242;SDS011;50118;53.232;8.252;2022-11-12T06:23:43;16.25;;;12.32;;
58242;SDS011;50118;53.232;8.252;2022-11-12T06:26:08;18.90;;;13.00;;
58242;SDS011;50118;53.232;8.252;2022-11-12T06:28:34;18.00;;;13.20;;
58242;SDS011;50118;53.232;8.252;2022-11-12T06:30:59;16.63;;;12.40;;
58242;SDS011;50118;53.232;8.252;2022-11-12T06:33:24;18.02;;;12.63;;
58242;SDS011;50118;53.232;8.252;2022-11-12T06:35:55;19.25;;;13.40;;
58242;SDS011;50118;53.232;8.252;2022-11-12T06:38:22;17.65;;;12.73;;
58242;SDS011;50118;53.232;8.252;2022-11-12T06:40:47;19.13;;;12.85;;
58242;SDS011;50118;53.232;8.252;2022-11-12T06:43:13;16.13;;;12.15;;
58242;SDS011;50118;53.232;8.252;2022-11-12T06:45:38;20.60;;;12.52;;
58242;SDS011;50118;53.232;8.252;2022-11-12T06:48:04;20.27;;;12.77;;
58242;SDS011;50118;53.232;8.252;2022-11-12T06:50:29;16.90;;;13.02;;
58242;SDS011;50118;53.232;8.252;2022-11-12T06:52:58;18.52;;;12.38;;
58242;SDS011;50118;53.232;8.252;2022-11-12T06:55:23;20.33;;;13.40;;
58242;SDS011;50118;53.232;8.252;2022-11-12T06:57:52;18.13;;;12.75;;
58242;SDS011;50118;53.232;8.252;2022-11-12T07:00:18;19.23;;;12.88;;
58242;SDS011;50118;53.232;8.252;2022-11-12T07:02:44;19.20;;;13.00;;
58242;SDS011;50118;53.232;8.252;2022-11-12T07:05:10;19.42;;;13.30;;
58242;SDS011;50118;53.232;8.252;2022-11-12T07:07:35;18.92;;;13.13;;
58242;SDS011;50118;53.232;8.252;2022-11-12T07:10:00;16.48;;;12.07;;
58242;SDS011;50118;53.232;8.252;2022-11-12T07:12:26;17.25;;;12.60;;
58242;SDS011;50118;53.232;8.252;2022-11-12T07:14:51;15.77;;;11.88;;
58242;SDS011;50118;53.232;8.252;2022-11-12T07:17:18;17.52;;;12.35;;
58242;SDS011;50118;53.232;8.252;2022-11-12T07:19:43;17.73;;;12.45;;
58242;SDS011;50118;53.232;8.252;2022-11-12T07:22:08;17.45;;;13.25;;
58242;SDS011;50118;53.232;8.252;2022-11-12T07:24:34;19.08;;;13.80;;
58242;SDS011;50118;53.232;8.252;2022-11-12T07:26:59;17.88;;;13.60;;
58242;SDS011;50118;53.232;8.252;2022-11-12T07:29:24;20.00;;;14.15;;
58242;SDS011;50118;53.232;8.252;2022-11-12T07:31:50;20.40;;;13.85;;
58242;SDS011;50118;53.232;8.252;2022-11-12T07:34:16;16.88;;;13.02;;
58242;SDS011;50118;53.232;8.252;2022-11-12T07:36:41;18.30;;;13.65;;
58242;SDS011;50118;53.232;8.252;2022-11-12T07:39:06;18.63;;;13.98;;
58242;SDS011;50118;53.232;8.252;2022-11-12T07:41:32;19.75;;;14.05;;
58242;SDS011;50118;53.232;8.252;2022-11-12T07:43:57;18.17;;;13.23;;
58242;SDS011;50118;53.232;8.252;2022-11-12T07:46:24;20.17;;;14.05;;
58242;SDS011;50118;53.232;8.252;2022-11-12T07:48:51;19.80;;;13.85;;
58242;SDS011;50118;53.232;8.252;2022-11-12T07:51:22;30.63;;;23.00;;
58242;SDS011;50118;53.232;8.252;2022-11-12T07:53:49;31.53;;;23.37;;
58242;SDS011;50118;53.232;8.252;2022-11-12T07:56:18;28.38;;;22.70;;
58242;SDS011;50118;53.232;8.252;2022-11-12T07:58:45;27.48;;;21.73;;
58242;SDS011;50118;53.232;8.252;2022-11-12T08:03:48;21.25;;;16.10;;
58242;SDS011;50118;53.232;8.252;2022-11-12T08:06:14;22.10;;;15.57;;
58242;SDS011;50118;53.232;8.252;2022-11-12T08:08:39;26.95;;;18.90;;
58242;SDS011;50118;53.232;8.252;2022-11-12T08:11:05;27.27;;;20.60;;
58242;SDS011;50118;53.232;8.252;2022-11-12T08:13:30;22.15;;;17.65;;
58242;SDS011;50118;53.232;8.252;2022-11-12T08:15:56;20.83;;;14.73;;
58242;SDS011;50118;53.232;8.252;2022-11-12T08:18:22;19.42;;;15.15;;
58242;SDS011;50118;53.232;8.252;2022-11-12T08:20:48;19.60;;;14.55;;
58242;SDS011;50118;53.232;8.252;2022-11-12T08:23:13;20.95;;;15.50;;
58242;SDS011;50118;53.232;8.252;2022-11-12T08:25:39;19.20;;;15.07;;
58242;SDS011;50118;53.232;8.252;2022-11-12T08:28:04;21.58;;;15.02;;
58242;SDS011;50118;53.232;8.252;2022-11-12T08:30:29;17.80;;;13.38;;
58242;SDS011;50118;53.232;8.252;2022-11-12T08:33:00;17.83;;;12.27;;
58242;SDS011;50118;53.232;8.252;2022-11-12T08:35:29;15.05;;;11.35;;
58242;SDS011;50118;53.232;8.252;2022-11-12T08:37:59;15.80;;;11.52;;
58242;SDS011;50118;53.232;8.252;2022-11-12T08:40:30;15.00;;;11.35;;
58242;SDS011;50118;53.232;8.252;2022-11-12T08:43:03;16.45;;;11.88;;
58242;SDS011;50118;53.232;8.252;2022-11-12T08:45:33;15.45;;;11.82;;
58242;SDS011;50118;53.232;8.252;2022-11-12T08:48:01;13.98;;;10.40;;
58242;SDS011;50118;53.232;8.252;2022-11-12T08:50:29;14.43;;;11.20;;
58242;SDS011;50118;53.232;8.252;2022-11-12T08:52:58;16.35;;;11.95;;
58242;SDS011;50118;53.232;8.252;2022-11-12T08:55:25;17.58;;;12.88;;
58242;SDS011;50118;53.232;8.252;2022-11-12T08:57:51;19.38;;;14.15;;
58242;SDS011;50118;53.232;8.252;2022-11-12T09:00:16;18.65;;;13.73;;
58242;SDS011;50118;53.232;8.252;2022-11-12T09:02:42;16.70;;;12.65;;
58242;SDS011;50118;53.232;8.252;2022-11-12T09:05:07;15.82;;;12.60;;
58242;SDS011;50118;53.232;8.252;2022-11-12T09:07:33;15.45;;;11.23;;
58242;SDS011;50118;53.232;8.252;2022-11-12T09:09:58;16.75;;;11.52;;
58242;SDS011;50118;53.232;8.252;2022-11-12T09:12:25;17.95;;;11.40;;
58242;SDS011;50118;53.232;8.252;2022-11-12T09:14:50;16.08;;;12.02;;
58242;SDS011;50118;53.232;8.252;2022-11-12T09:17:16;14.68;;;10.93;;
58242;SDS011;50118;53.232;8.252;2022-11-12T09:19:41;15.85;;;11.45;;
58242;SDS011;50118;53.232;8.252;2022-11-12T09:22:07;17.35;;;10.88;;
58242;SDS011;50118;53.232;8.252;2022-11-12T09:24:32;17.10;;;10.88;;
58242;SDS011;50118;53.232;8.252;2022-11-12T09:26:58;16.17;;;11.43;;
58242;SDS011;50118;53.232;8.252;2022-11-12T09:29:23;15.52;;;11.93;;
58242;SDS011;50118;53.232;8.252;2022-11-12T09:31:49;16.98;;;11.48;;
58242;SDS011;50118;53.232;8.252;2022-11-12T09:34:14;18.73;;;12.65;;
58242;SDS011;50118;53.232;8.252;2022-11-12T09:36:39;17.48;;;11.98;;
58242;SDS011;50118;53.232;8.252;2022-11-12T09:39:11;15.70;;;11.13;;
58242;SDS011;50118;53.232;8.252;2022-11-12T09:41:40;16.02;;;11.48;;
58242;SDS011;50118;53.232;8.252;2022-11-12T09:44:14;16.65;;;11.43;;
58242;SDS011;50118;53.232;8.252;2022-11-12T09:49:15;19.35;;;11.05;;
58242;SDS011;50118;53.232;8.252;2022-11-12T09:51:54;17.27;;;10.98;;
58242;SDS011;50118;53.232;8.252;2022-11-12T09:54:33;17.05;;;10.95;;
58242;SDS011;50118;53.232;8.252;2022-11-12T09:56:59;16.65;;;10.77;;
58242;SDS011;50118;53.232;8.252;2022-11-12T09:59:34;15.85;;;10.38;;
58242;SDS011;50118;53.232;8.252;2022-11-12T10:16:21;14.32;;;9.57;;
58242;SDS011;50118;53.232;8.252;2022-11-12T10:19:24;15.23;;;9.30;;
58242;SDS011;50118;53.232;8.252;2022-11-12T10:24:30;13.90;;;9.20;;
58242;SDS011;50118;53.232;8.252;2022-11-12T10:27:01;15.52;;;8.95;;
58242;SDS011;50118;53.232;8.252;2022-11-12T10:32:24;13.82;;;8.85;;
58242;SDS011;50118;53.232;8.252;2022-11-12T10:34:50;13.25;;;8.95;;
58242;SDS011;50118;53.232;8.252;2022-11-12T10:37:23;15.68;;;9.23;;
58242;SDS011;50118;53.232;8.252;2022-11-12T10:39:59;14.90;;;9.10;;
58242;SDS011;50118;53.232;8.252;2022-11-12T10:42:58;14.13;;;8.75;;
58242;SDS011;50118;53.232;8.252;2022-11-12T10:45:31;13.15;;;8.63;;
58242;SDS011;50118;53.232;8.252;2022-11-12T10:48:01;15.75;;;9.23;;
58242;SDS011;50118;53.232;8.252;2022-11-12T10:53:05;13.18;;;9.40;;
58242;SDS011;50118;53.232;8.252;2022-11-12T10:55:36;12.32;;;8.88;;
58242;SDS011;50118;53.232;8.252;2022-11-12T10:58:19;12.80;;;8.63;;
58242;SDS011;50118;53.232;8.252;2022-11-12T11:03:54;13.52;;;8.57;;
58242;SDS011;50118;53.232;8.252;2022-11-12T11:06:23;13.85;;;9.10;;
58242;SDS011;50118;53.232;8.252;2022-11-12T11:08:52;13.48;;;9.32;;
58242;SDS011;50118;53.232;8.252;2022-11-12T11:11:51;13.82;;;9.32;;
58242;SDS011;50118;53.232;8.252;2022-11-12T11:16:49;14.57;;;8.50;;
58242;SDS011;50118;53.232;8.252;2022-11-12T11:19:16;13.55;;;8.40;;
58242;SDS011;50118;53.232;8.252;2022-11-12T11:27:06;11.88;;;8.65;;
58242;SDS011;50118;53.232;8.252;2022-11-12T11:41:08;15.48;;;9.50;;
58242;SDS011;50118;53.232;8.252;2022-11-12T11:54:59;13.68;;;8.45;;
58242;SDS011;50118;53.232;8.252;2022-11-12T11:57:34;12.75;;;8.80;;
58242;SDS011;50118;53.232;8.252;2022-11-12T12:00:21;11.87;;;8.27;;
58242;SDS011;50118;53.232;8.252;2022-11-12T12:11:42;13.52;;;8.50;;
58242;SDS011;50118;53.232;8.252;2022-11-12T12:26:00;15.00;;;9.10;;
58242;SDS011;50118;53.232;8.252;2022-11-12T12:28:41;12.82;;;8.27;;
58242;SDS011;50118;53.232;8.252;2022-11-12T12:31:19;12.25;;;8.55;;
58242;SDS011;50118;53.232;8.252;2022-11-12T12:33:51;11.80;;;8.40;;
58242;SDS011;50118;53.232;8.252;2022-11-12T12:36:25;12.95;;;8.23;;
58242;SDS011;50118;53.232;8.252;2022-11-12T12:41:48;12.20;;;8.57;;
58242;SDS011;50118;53.232;8.252;2022-11-12T12:44:48;15.25;;;9.00;;
58242;SDS011;50118;53.232;8.252;2022-11-12T12:47:24;12.88;;;8.55;;
58242;SDS011;50118;53.232;8.252;2022-11-12T12:49:52;13.55;;;8.73;;
58242;SDS011;50118;53.232;8.252;2022-11-12T12:52:20;12.88;;;8.23;;
58242;SDS011;50118;53.232;8.252;2022-11-12T12:57:25;11.70;;;7.88;;
58242;SDS011;50118;53.232;8.252;2022-11-12T13:02:59;13.50;;;7.63;;
58242;SDS011;50118;53.232;8.252;2022-11-12T13:05:26;11.55;;;7.47;;
58242;SDS011;50118;53.232;8.252;2022-11-12T13:07:53;12.32;;;7.78;;
58242;SDS011;50118;53.232;8.252;2022-11-12T13:15:49;10.25;;;6.85;;
58242;SDS011;50118;53.232;8.252;2022-11-12T13:21:10;11.70;;;6.50;;
58242;SDS011;50118;53.232;8.252;2022-11-12T13:26:50;10.13;;;6.63;;
58242;SDS011;50118;53.232;8.252;2022-11-12T13:29:39;9.40;;;6.20;;
58242;SDS011;50118;53.232;8.252;2022-11-12T13:40:45;11.35;;;6.43;;
58242;SDS011;50118;53.232;8.252;2022-11-12T13:43:43;10.00;;;6.20;;
58242;SDS011;50118;53.232;8.252;2022-11-12T13:46:23;9.80;;;5.93;;
58242;SDS011;50118;53.232;8.252;2022-11-12T13:51:33;10.27;;;6.40;;
58242;SDS011;50118;53.232;8.252;2022-11-12T13:54:21;9.73;;;6.10;;
58242;SDS011;50118;53.232;8.252;2022-11-12T13:56:48;8.70;;;5.40;;
58242;SDS011;50118;53.232;8.252;2022-11-12T13:59:14;8.88;;;5.38;;
58242;SDS011;50118;53.232;8.252;2022-11-12T14:01:41;13.60;;;6.60;;
58242;SDS011;50118;53.232;8.252;2022-11-12T14:04:12;9.95;;;6.45;;
58242;SDS011;50118;53.232;8.252;2022-11-12T14:06:40;10.77;;;6.80;;
58242;SDS011;50118;53.232;8.252;2022-11-12T14:09:11;10.93;;;6.85;;
58242;SDS011;50118;53.232;8.252;2022-11-12T14:14:41;9.55;;;6.20;;
58242;SDS011;50118;53.232;8.252;2022-11-12T14:22:47;10.10;;;6.00;;
58242;SDS011;50118;53.232;8.252;2022-11-12T14:25:15;9.30;;;6.28;;
58242;SDS011;50118;53.232;8.252;2022-11-12T14:27:44;9.13;;;6.30;;
58242;SDS011;50118;53.232;8.252;2022-11-12T14:32:41;8.80;;;5.45;;
58242;SDS011;50118;53.232;8.252;2022-11-12T14:40:47;9.75;;;5.90;;
58242;SDS011;50118;53.232;8.252;2022-11-12T14:44:15;8.85;;;5.47;;
58242;SDS011;50118;53.232;8.252;2022-11-12T14:46:28;9.77;;;5.80;;
58242;SDS011;50118;53.232;8.252;2022-11-12T14:49:05;9.18;;;5.80;;
58242;SDS011;50118;53.232;8.252;2022-11-12T14:51:55;7.93;;;5.57;;
58242;SDS011;50118;53.232;8.252;2022-11-12T14:54:30;9.45;;;6.05;;
58242;SDS011;50118;53.232;8.252;2022-11-12T14:57:01;8.70;;;5.55;;
58242;SDS011;50118;53.232;8.252;2022-11-12T14:59:28;9.85;;;5.80;;
58242;SDS011;50118;53.232;8.252;2022-11-12T15:05:10;11.23;;;6.65;;
58242;SDS011;50118;53.232;8.252;2022-11-12T15:13:06;13.75;;;7.38;;
58242;SDS011;50118;53.232;8.252;2022-11-12T15:15:34;11.07;;;6.78;;
58242;SDS011;50118;53.232;8.252;2022-11-12T15:18:04;10.82;;;6.72;;
58242;SDS011;50118;53.232;8.252;2022-11-12T15:24:06;10.73;;;7.40;;
58242;SDS011;50118;53.232;8.252;2022-11-12T15:26:51;9.65;;;6.75;;
58242;SDS011;50118;53.232;8.252;2022-11-12T15:31:54;13.65;;;7.97;;
58242;SDS011;50118;53.232;8.252;2022-11-12T15:35:04;11.65;;;7.35;;
58242;SDS011;50118;53.232;8.252;2022-11-12T15:39:44;11.77;;;7.47;;
58242;SDS011;50118;53.232;8.252;2022-11-12T15:45:01;12.40;;;8.00;;
58242;SDS011;50118;53.232;8.252;2022-11-12T15:47:29;13.30;;;8.13;;
58242;SDS011;50118;53.232;8.252;2022-11-12T15:49:56;12.30;;;7.25;;
58242;SDS011;50118;53.232;8.252;2022-11-12T15:52:25;12.07;;;7.45;;
58242;SDS011;50118;53.232;8.252;2022-11-12T15:54:51;11.20;;;7.60;;
58242;SDS011;50118;53.232;8.252;2022-11-12T15:57:17;11.07;;;7.50;;
58242;SDS011;50118;53.232;8.252;2022-11-12T15:59:52;11.75;;;8.13;;
58242;SDS011;50118;53.232;8.252;2022-11-12T16:02:21;12.02;;;7.75;;
58242;SDS011;50118;53.232;8.252;2022-11-12T16:04:47;12.23;;;7.93;;
58242;SDS011;50118;53.232;8.252;2022-11-12T16:07:13;15.88;;;10.02;;
58242;SDS011;50118;53.232;8.252;2022-11-12T16:09:38;14.10;;;8.30;;
58242;SDS011;50118;53.232;8.252;2022-11-12T16:12:03;11.82;;;7.90;;
58242;SDS011;50118;53.232;8.252;2022-11-12T16:14:29;12.73;;;8.23;;
58242;SDS011;50118;53.232;8.252;2022-11-12T16:16:55;14.20;;;8.65;;
58242;SDS011;50118;53.232;8.252;2022-11-12T16:19:21;11.30;;;7.70;;
58242;SDS011;50118;53.232;8.252;2022-11-12T16:21:46;14.50;;;8.40;;
58242;SDS011;50118;53.232;8.252;2022-11-12T16:24:13;15.50;;;8.48;;
58242;SDS011;50118;53.232;8.252;2022-11-12T16:26:38;11.15;;;7.45;;
58242;SDS011;50118;53.232;8.252;2022-11-12T16:29:11;12.80;;;8.07;;
58242;SDS011;50118;53.232;8.252;2022-11-12T16:31:39;12.32;;;8.27;;
58242;SDS011;50118;53.232;8.252;2022-11-12T16:34:05;13.63;;;8.90;;
58242;SDS011;50118;53.232;8.252;2022-11-12T16:36:30;13.18;;;8.50;;
58242;SDS011;50118;53.232;8.252;2022-11-12T16:38:56;12.25;;;8.18;;
58242;SDS011;50118;53.232;8.252;2022-11-12T16:41:21;11.80;;;9.20;;
58242;SDS011;50118;53.232;8.252;2022-11-12T16:43:47;12.77;;;8.82;;
58242;SDS011;50118;53.232;8.252;2022-11-12T16:46:13;14.45;;;9.32;;
58242;SDS011;50118;53.232;8.252;2022-11-12T16:51:16;14.98;;;11.20;;
58242;SDS011;50118;53.232;8.252;2022-11-12T16:53:43;17.73;;;12.88;;
58242;SDS011;50118;53.232;8.252;2022-11-12T16:56:19;20.30;;;13.35;;
58242;SDS011;50118;53.232;8.252;2022-11-12T16:58:46;18.67;;;13.45;;
58242;SDS011;50118;53.232;8.252;2022-11-12T17:01:33;18.48;;;12.30;;
58242;SDS011;50118;53.232;8.252;2022-11-12T17:03:58;17.95;;;12.55;;
58242;SDS011;50118;53.232;8.252;2022-11-12T17:06:34;16.25;;;12.57;;
58242;SDS011;50118;53.232;8.252;2022-11-12T17:09:05;18.70;;;12.38;;
58242;SDS011;50118;53.232;8.252;2022-11-12T17:11:32;15.65;;;11.40;;